createdAt,value
2023-05-19T00:02:26.120Z,8.35
2023-05-19T00:04:53.272Z,8.35
2023-05-19T00:07:24.464Z,8.63
2023-05-19T00:09:51.410Z,9.00
2023-05-19T00:12:18.254Z,9.10
2023-05-19T00:14:45.199Z,9.30
2023-05-19T00:17:12.162Z,8.88
2023-05-19T00:19:39.515Z,9.10
2023-05-19T00:22:06.268Z,10.38
2023-05-19T00:24:33.350Z,9.68
2023-05-19T00:27:00.061Z,9.10
2023-05-19T00:29:26.791Z,9.07
2023-05-19T00:31:53.573Z,9.45
2023-05-19T00:34:20.345Z,9.55
2023-05-19T00:36:46.971Z,9.25
2023-05-19T00:39:13.661Z,9.23
2023-05-19T00:41:40.440Z,9.70
2023-05-19T00:44:07.315Z,10.55
2023-05-19T00:46:34.183Z,9.75
2023-05-19T00:49:00.931Z,10.45
2023-05-19T00:51:29.684Z,9.82
2023-05-19T00:53:56.767Z,9.95
2023-05-19T00:56:23.686Z,10.98
2023-05-19T00:58:51.972Z,10.10
2023-05-19T01:01:19.096Z,10.50
2023-05-19T01:03:47.214Z,10.52
2023-05-19T01:06:15.112Z,11.57
2023-05-19T01:08:41.834Z,10.15
2023-05-19T01:11:08.658Z,11.10
2023-05-19T01:13:36.415Z,10.48
2023-05-19T01:16:11.363Z,10.40
2023-05-19T01:18:47.741Z,10.02
2023-05-19T01:21:51.236Z,8.50
2023-05-19T01:24:49.726Z,7.97
2023-05-19T01:27:48.167Z,7.35
2023-05-19T01:30:29.243Z,6.50
2023-05-19T01:33:00.694Z,5.72
2023-05-19T01:35:28.649Z,5.50
2023-05-19T01:37:57.957Z,5.43
2023-05-19T01:40:25.864Z,5.13
2023-05-19T01:42:57.849Z,4.53
2023-05-19T01:45:26.220Z,4.88
2023-05-19T01:47:57.033Z,4.28
2023-05-19T01:50:24.057Z,4.15
2023-05-19T01:52:51.485Z,3.90
2023-05-19T01:55:18.837Z,3.92
2023-05-19T01:58:13.262Z,3.42
2023-05-19T02:00:54.163Z,3.58
2023-05-19T02:03:38.645Z,3.63
2023-05-19T02:06:33.242Z,3.40
2023-05-19T02:09:45.025Z,3.10
2023-05-19T02:12:20.447Z,3.28
2023-05-19T02:14:57.752Z,3.13
2023-05-19T02:17:29.381Z,3.35
2023-05-19T02:19:56.863Z,3.10
2023-05-19T02:22:23.610Z,3.17
2023-05-19T02:24:51.948Z,2.90
2023-05-19T02:27:19.005Z,3.35
2023-05-19T02:29:46.087Z,3.20
2023-05-19T02:32:13.906Z,3.28
2023-05-19T02:34:42.306Z,3.42
2023-05-19T02:37:09.385Z,3.30
2023-05-19T02:39:36.129Z,3.25
2023-05-19T02:42:02.819Z,3.38
2023-05-19T02:44:29.573Z,3.70
2023-05-19T02:46:56.257Z,3.53
2023-05-19T02:49:23.120Z,3.60
2023-05-19T02:51:49.796Z,3.47
2023-05-19T02:54:16.494Z,3.70
2023-05-19T02:56:43.225Z,3.63
2023-05-19T02:59:09.881Z,4.00
2023-05-19T03:01:37.792Z,3.90
2023-05-19T03:04:04.738Z,3.75
2023-05-19T03:06:32.895Z,3.55
2023-05-19T03:08:59.659Z,3.53
2023-05-19T03:11:26.474Z,4.00
2023-05-19T03:13:53.154Z,3.92
2023-05-19T03:16:20.129Z,3.60
2023-05-19T03:18:46.932Z,3.75
2023-05-19T03:21:13.680Z,3.90
2023-05-19T03:23:40.325Z,3.80
2023-05-19T03:26:06.971Z,3.95
2023-05-19T03:28:33.688Z,3.55
2023-05-19T03:31:00.438Z,4.20
2023-05-19T03:33:29.889Z,3.40
2023-05-19T03:35:57.589Z,4.15
2023-05-19T03:38:24.291Z,3.80
2023-05-19T03:40:50.925Z,4.10
2023-05-19T03:43:17.616Z,3.72
2023-05-19T03:45:44.421Z,3.63
2023-05-19T03:48:11.194Z,4.57
2023-05-19T03:50:38.136Z,3.55
2023-05-19T03:53:04.926Z,3.72
2023-05-19T03:55:31.769Z,3.83
2023-05-19T03:57:58.402Z,3.35
2023-05-19T04:00:25.153Z,3.30
2023-05-19T04:02:52.045Z,3.25
2023-05-19T04:05:18.948Z,3.50
2023-05-19T04:07:46.829Z,3.28
2023-05-19T04:10:13.930Z,3.78
2023-05-19T04:12:40.725Z,3.50
2023-05-19T04:15:08.123Z,3.45
2023-05-19T04:17:35.098Z,3.22
2023-05-19T04:20:01.911Z,3.00
2023-05-19T04:22:28.566Z,3.10
2023-05-19T04:24:56.295Z,3.25
2023-05-19T04:27:23.109Z,3.40
2023-05-19T04:29:50.104Z,3.03
2023-05-19T04:32:19.744Z,3.50
2023-05-19T04:34:46.572Z,2.88
2023-05-19T04:37:14.272Z,3.28
2023-05-19T04:39:45.255Z,3.15
2023-05-19T04:42:12.416Z,3.38
2023-05-19T04:44:42.413Z,3.60
2023-05-19T04:47:09.310Z,3.33
2023-05-19T04:49:39.133Z,3.40
2023-05-19T04:52:11.931Z,3.13
2023-05-19T04:54:40.117Z,3.17
2023-05-19T04:57:06.935Z,3.05
2023-05-19T04:59:33.743Z,3.70
2023-05-19T05:02:00.682Z,3.72
2023-05-19T05:04:28.426Z,3.50
2023-05-19T05:06:55.098Z,3.28
2023-05-19T05:09:21.933Z,3.22
2023-05-19T05:11:48.842Z,3.47
2023-05-19T05:14:16.325Z,3.33
2023-05-19T05:16:43.735Z,3.85
2023-05-19T05:19:10.833Z,3.30
2023-05-19T05:21:37.819Z,3.15
2023-05-19T05:24:04.837Z,3.70
2023-05-19T05:26:33.951Z,3.15
2023-05-19T05:29:00.591Z,3.30
2023-05-19T05:31:27.330Z,2.90
2023-05-19T05:33:54.039Z,2.78
2023-05-19T05:36:20.758Z,3.17
2023-05-19T05:38:47.483Z,3.53
2023-05-19T05:41:14.210Z,3.10
2023-05-19T05:43:40.909Z,3.05
2023-05-19T05:46:07.677Z,2.90
2023-05-19T05:48:34.911Z,3.10
2023-05-19T05:51:01.829Z,2.78
2023-05-19T05:53:32.170Z,3.10
2023-05-19T05:55:59.248Z,2.80
2023-05-19T05:58:25.930Z,2.97
2023-05-19T06:00:53.619Z,3.20
2023-05-19T06:03:24.452Z,2.95
2023-05-19T06:05:51.678Z,2.92
2023-05-19T06:08:18.574Z,3.08
2023-05-19T06:10:47.251Z,3.10
2023-05-19T06:13:17.896Z,3.30
2023-05-19T06:15:44.690Z,3.40
2023-05-19T06:18:11.425Z,3.28
2023-05-19T06:20:38.228Z,3.25
2023-05-19T06:23:04.917Z,3.17
2023-05-19T06:25:32.130Z,3.17
2023-05-19T06:27:59.010Z,2.90
2023-05-19T06:30:25.791Z,3.00
2023-05-19T06:32:52.521Z,3.40
2023-05-19T06:35:19.289Z,2.90
2023-05-19T06:37:46.075Z,3.30
2023-05-19T06:40:13.209Z,4.00
2023-05-19T06:42:39.869Z,3.42
2023-05-19T06:45:07.160Z,2.90
2023-05-19T06:47:33.825Z,2.67
2023-05-19T06:50:00.557Z,2.97
2023-05-19T06:52:27.272Z,2.92
2023-05-19T06:54:54.163Z,2.92
2023-05-19T06:57:23.546Z,3.15
2023-05-19T06:59:50.208Z,2.90
2023-05-19T07:02:17.025Z,3.22
2023-05-19T07:04:43.877Z,2.80
2023-05-19T07:07:10.719Z,3.15
2023-05-19T07:09:37.445Z,2.70
2023-05-19T07:12:05.249Z,2.92
2023-05-19T07:14:36.538Z,3.10
2023-05-19T07:17:03.274Z,2.75
2023-05-19T07:19:30.058Z,3.15
2023-05-19T07:21:57.276Z,3.00
2023-05-19T07:24:24.047Z,2.80
2023-05-19T07:26:50.996Z,3.40
2023-05-19T07:29:17.670Z,2.80
2023-05-19T07:31:44.403Z,2.80
2023-05-19T07:34:11.083Z,2.60
2023-05-19T07:36:37.887Z,2.80
2023-05-19T07:39:04.802Z,2.85
2023-05-19T07:41:31.588Z,2.65
2023-05-19T07:43:58.426Z,3.05
2023-05-19T07:46:25.147Z,2.83
2023-05-19T07:48:51.785Z,3.03
2023-05-19T07:51:19.535Z,3.25
2023-05-19T07:53:47.222Z,3.10
2023-05-19T07:56:14.080Z,3.03
2023-05-19T07:58:40.955Z,3.25
2023-05-19T08:01:07.649Z,3.08
2023-05-19T08:03:34.823Z,3.08
2023-05-19T08:06:01.739Z,3.17
2023-05-19T08:08:28.422Z,2.97
2023-05-19T08:10:55.158Z,2.78
2023-05-19T08:13:21.990Z,2.70
2023-05-19T08:15:48.760Z,3.17
2023-05-19T08:18:15.786Z,2.80
2023-05-19T08:20:42.528Z,3.10
2023-05-19T08:23:09.223Z,2.97
2023-05-19T08:25:35.968Z,2.70
2023-05-19T08:28:03.892Z,2.47
2023-05-19T08:30:30.642Z,3.20
2023-05-19T08:32:58.179Z,2.70
2023-05-19T08:35:25.006Z,3.40
2023-05-19T08:37:52.694Z,2.80
2023-05-19T08:40:20.418Z,3.20
2023-05-19T08:42:51.194Z,3.30
2023-05-19T08:45:18.019Z,2.90
2023-05-19T08:47:46.927Z,2.72
2023-05-19T08:50:17.785Z,3.03
2023-05-19T08:52:57.867Z,2.88
2023-05-19T08:55:53.369Z,2.90
2023-05-19T08:58:22.009Z,3.38
2023-05-19T09:00:49.521Z,2.88
2023-05-19T09:03:23.686Z,2.85
2023-05-19T09:05:51.396Z,2.65
2023-05-19T09:08:18.516Z,3.08
2023-05-19T09:10:45.563Z,3.00
2023-05-19T09:13:12.255Z,2.80
2023-05-19T09:15:39.969Z,3.08
2023-05-19T09:18:12.205Z,2.80
2023-05-19T09:20:44.787Z,2.90
2023-05-19T09:23:16.393Z,2.80
2023-05-19T09:25:51.010Z,3.22
2023-05-19T09:28:28.144Z,3.20
2023-05-19T09:31:06.197Z,2.72
2023-05-19T09:33:35.051Z,2.78
2023-05-19T09:36:02.037Z,3.05
2023-05-19T09:38:28.823Z,2.88
2023-05-19T09:41:00.059Z,2.83
2023-05-19T09:43:30.981Z,3.00
2023-05-19T09:46:03.621Z,2.95
2023-05-19T09:48:34.780Z,3.10
2023-05-19T09:51:02.587Z,3.00
2023-05-19T09:53:32.729Z,3.13
2023-05-19T09:56:02.035Z,2.90
2023-05-19T09:58:37.480Z,3.00
2023-05-19T10:01:05.586Z,3.20
2023-05-19T10:03:33.923Z,3.00
2023-05-19T10:06:05.503Z,3.10
2023-05-19T10:08:34.324Z,2.97
2023-05-19T10:11:01.846Z,2.85
2023-05-19T10:13:31.075Z,3.00
2023-05-19T10:15:59.978Z,3.00
2023-05-19T10:18:30.258Z,3.00
2023-05-19T10:20:58.186Z,2.78
2023-05-19T10:23:26.142Z,3.20
2023-05-19T10:25:57.700Z,3.20
2023-05-19T10:28:30.483Z,3.25
2023-05-19T10:31:00.680Z,3.40
2023-05-19T10:33:53.985Z,3.40
2023-05-19T10:36:32.648Z,3.13
2023-05-19T10:39:06.720Z,2.80
2023-05-19T10:42:07.324Z,3.05
2023-05-19T10:44:57.536Z,3.28
2023-05-19T10:47:25.471Z,3.25
2023-05-19T10:49:55.877Z,2.85
2023-05-19T10:52:29.725Z,2.80
2023-05-19T10:54:56.482Z,3.08
2023-05-19T10:57:28.151Z,3.25
2023-05-19T10:59:57.586Z,3.13
2023-05-19T11:02:43.416Z,3.63
2023-05-19T11:05:14.864Z,3.40
2023-05-19T11:07:56.188Z,3.30
2023-05-19T11:10:23.960Z,3.40
2023-05-19T11:15:19.751Z,3.20
2023-05-19T11:17:49.007Z,3.38
2023-05-19T11:20:29.918Z,3.50
2023-05-19T11:23:18.976Z,3.40
2023-05-19T11:25:51.293Z,4.03
2023-05-19T11:28:20.122Z,3.75
2023-05-19T11:30:52.038Z,3.57
2023-05-19T11:33:20.685Z,3.53
2023-05-19T11:35:49.617Z,3.55
2023-05-19T11:38:18.764Z,3.67
2023-05-19T11:40:47.230Z,3.33
2023-05-19T11:43:13.940Z,4.03
2023-05-19T11:45:40.733Z,3.58
2023-05-19T11:48:15.692Z,3.40
2023-05-19T11:50:43.936Z,4.18
2023-05-19T11:53:14.277Z,3.40
2023-05-19T11:55:50.022Z,3.28
2023-05-19T11:58:19.490Z,3.50
2023-05-19T12:00:47.941Z,3.55
2023-05-19T12:03:15.279Z,3.50
2023-05-19T12:05:48.329Z,3.60
2023-05-19T12:08:18.553Z,3.47
2023-05-19T12:10:50.100Z,3.50
2023-05-19T12:13:16.981Z,3.40
2023-05-19T12:15:43.943Z,3.05
2023-05-19T12:18:10.818Z,3.50
2023-05-19T12:20:37.913Z,3.20
2023-05-19T12:23:05.233Z,3.67
2023-05-19T12:25:32.749Z,3.50
2023-05-19T12:28:03.061Z,3.38
2023-05-19T12:30:34.357Z,3.17
2023-05-19T12:33:02.823Z,3.72
2023-05-19T12:35:34.534Z,3.42
2023-05-19T12:38:05.582Z,3.50
2023-05-19T12:40:35.057Z,3.17
2023-05-19T12:43:02.479Z,3.35
2023-05-19T12:45:33.709Z,3.38
2023-05-19T12:48:03.632Z,3.45
2023-05-19T12:50:34.392Z,3.30
2023-05-19T12:53:01.509Z,3.22
2023-05-19T12:55:30.418Z,3.83
2023-05-19T12:57:58.461Z,3.55
2023-05-19T13:00:28.700Z,3.05
2023-05-19T13:03:10.002Z,3.20
2023-05-19T13:05:43.783Z,3.38
2023-05-19T13:08:15.227Z,3.25
2023-05-19T13:10:45.985Z,3.30
2023-05-19T13:13:13.425Z,2.90
2023-05-19T13:15:51.122Z,2.85
2023-05-19T13:18:18.158Z,3.00
2023-05-19T13:20:47.432Z,2.83
2023-05-19T13:23:14.738Z,3.10
2023-05-19T13:25:42.164Z,2.90
2023-05-19T13:28:09.700Z,3.00
2023-05-19T13:30:45.038Z,3.10
2023-05-19T13:33:12.060Z,3.50
2023-05-19T13:35:39.159Z,3.50
2023-05-19T13:38:10.854Z,3.65
2023-05-19T13:40:39.657Z,3.70
2023-05-19T13:43:07.463Z,3.55
2023-05-19T13:45:34.221Z,3.20
2023-05-19T13:48:01.121Z,3.50
2023-05-19T13:50:28.011Z,3.10
2023-05-19T13:52:54.807Z,3.35
2023-05-19T13:55:22.526Z,3.22
2023-05-19T13:57:49.386Z,3.30
2023-05-19T14:00:17.732Z,3.45
2023-05-19T14:02:44.523Z,3.10
2023-05-19T14:05:11.483Z,3.33
2023-05-19T14:07:38.457Z,3.20
2023-05-19T14:10:08.934Z,3.35
2023-05-19T14:12:49.514Z,3.28
2023-05-19T14:15:23.044Z,3.45
2023-05-19T14:17:49.771Z,3.45
2023-05-19T14:20:16.486Z,3.55
2023-05-19T14:22:43.194Z,3.70
2023-05-19T14:25:10.124Z,3.38
2023-05-19T14:27:37.006Z,3.80
2023-05-19T14:30:04.003Z,3.20
2023-05-19T14:32:30.831Z,3.35
2023-05-19T14:34:57.535Z,3.40
2023-05-19T14:37:29.612Z,3.35
2023-05-19T14:39:57.843Z,3.53
2023-05-19T14:42:25.332Z,3.25
2023-05-19T14:44:52.002Z,3.20
2023-05-19T14:47:18.918Z,3.25
2023-05-19T14:49:45.685Z,3.67
2023-05-19T14:52:12.382Z,3.83
2023-05-19T14:54:39.289Z,4.10
2023-05-19T14:57:07.296Z,3.60
2023-05-19T14:59:37.928Z,3.53
2023-05-19T15:02:07.901Z,3.70
2023-05-19T15:04:34.551Z,3.70
2023-05-19T15:09:36.533Z,3.10
2023-05-19T15:12:03.376Z,3.20
2023-05-19T15:14:31.433Z,3.67
2023-05-19T15:16:58.788Z,3.50
2023-05-19T15:19:26.185Z,3.25
2023-05-19T15:21:53.107Z,3.50
2023-05-19T15:24:19.859Z,3.40
2023-05-19T15:26:47.301Z,3.75
2023-05-19T15:29:14.152Z,3.40
2023-05-19T15:31:41.469Z,3.42
2023-05-19T15:34:08.532Z,3.50
2023-05-19T15:36:35.624Z,3.67
2023-05-19T15:39:03.663Z,3.20
2023-05-19T15:41:30.831Z,3.22
2023-05-19T15:44:00.201Z,3.42
2023-05-19T15:46:27.361Z,3.17
2023-05-19T15:48:54.064Z,3.35
2023-05-19T15:51:20.960Z,3.10
2023-05-19T15:53:48.955Z,3.40
2023-05-19T15:56:15.902Z,4.00
2023-05-19T15:58:42.695Z,3.88
2023-05-19T16:01:09.778Z,3.38
2023-05-19T16:03:36.497Z,3.88
2023-05-19T16:06:03.537Z,4.57
2023-05-19T16:08:30.369Z,4.10
2023-05-19T16:10:57.283Z,4.22
2023-05-19T16:13:24.097Z,4.57
2023-05-19T16:15:51.925Z,3.83
2023-05-19T16:18:18.869Z,4.43
2023-05-19T16:20:45.638Z,4.20
2023-05-19T16:23:12.253Z,3.60
2023-05-19T16:25:38.928Z,4.10
2023-05-19T16:28:05.944Z,4.10
2023-05-19T16:30:32.949Z,3.60
2023-05-19T16:32:59.926Z,4.00
2023-05-19T16:35:29.405Z,3.78
2023-05-19T16:37:56.267Z,3.90
2023-05-19T16:40:22.935Z,4.05
2023-05-19T16:42:49.858Z,3.90
2023-05-19T16:45:17.551Z,3.85
2023-05-19T16:47:44.785Z,4.18
2023-05-19T16:50:13.926Z,4.72
2023-05-19T16:52:40.850Z,4.88
2023-05-19T16:55:07.921Z,5.10
2023-05-19T16:57:35.184Z,5.00
2023-05-19T17:00:02.050Z,4.85
2023-05-19T17:02:28.856Z,5.15
2023-05-19T17:04:58.796Z,5.75
2023-05-19T17:07:25.479Z,5.65
2023-05-19T17:09:54.494Z,5.25
2023-05-19T17:12:22.648Z,5.60
2023-05-19T17:14:50.436Z,5.82
2023-05-19T17:17:17.182Z,5.55
2023-05-19T17:19:43.892Z,5.93
2023-05-19T17:22:11.357Z,5.63
2023-05-19T17:24:38.024Z,6.00
2023-05-19T17:27:06.093Z,5.40
2023-05-19T17:29:33.773Z,5.88
2023-05-19T17:32:03.517Z,6.07
2023-05-19T17:34:30.744Z,5.65
2023-05-19T17:36:57.430Z,5.60
2023-05-19T17:39:24.851Z,5.75
2023-05-19T17:41:51.647Z,5.40
2023-05-19T17:44:18.429Z,5.78
2023-05-19T17:46:48.081Z,5.60
2023-05-19T17:49:15.411Z,5.97
2023-05-19T17:51:42.527Z,6.13
2023-05-19T17:54:09.410Z,5.88
2023-05-19T17:56:40.947Z,5.82
2023-05-19T17:59:07.835Z,6.00
2023-05-19T18:01:36.033Z,6.45
2023-05-19T18:04:03.880Z,6.97
2023-05-19T18:06:33.330Z,7.55
2023-05-19T18:09:03.284Z,7.28
2023-05-19T18:11:29.981Z,7.03
2023-05-19T18:13:57.378Z,7.68
2023-05-19T18:16:24.133Z,7.18
2023-05-19T18:18:51.948Z,7.30
2023-05-19T18:21:19.305Z,7.30
2023-05-19T18:23:46.702Z,7.60
2023-05-19T18:26:13.712Z,7.68
2023-05-19T18:28:41.542Z,6.85
2023-05-19T18:31:17.430Z,7.30
2023-05-19T18:33:47.672Z,7.05
2023-05-19T18:36:16.545Z,6.57
2023-05-19T18:38:43.371Z,7.13
2023-05-19T18:41:10.191Z,8.40
2023-05-19T18:43:36.879Z,8.45
2023-05-19T18:46:03.599Z,7.97
2023-05-19T18:48:30.450Z,8.20
2023-05-19T18:50:57.224Z,8.73
2023-05-19T18:53:24.027Z,8.27
2023-05-19T18:55:53.199Z,8.57
2023-05-19T18:58:19.859Z,8.82
2023-05-19T19:00:46.904Z,8.40
2023-05-19T19:03:13.755Z,9.85
2023-05-19T19:05:40.499Z,8.77
2023-05-19T19:08:07.215Z,8.52
2023-05-19T19:10:40.928Z,9.52
2023-05-19T19:13:07.697Z,9.73
2023-05-19T19:15:34.349Z,9.88
2023-05-19T19:18:01.117Z,9.88
2023-05-19T19:20:27.882Z,9.65
2023-05-19T19:22:54.613Z,10.45
2023-05-19T19:25:23.266Z,10.45
2023-05-19T19:27:50.625Z,10.57
2023-05-19T19:30:17.473Z,10.35
2023-05-19T19:32:44.185Z,11.38
2023-05-19T19:35:11.276Z,9.98
2023-05-19T19:37:40.226Z,10.27
2023-05-19T19:40:07.392Z,9.23
2023-05-19T19:42:34.331Z,11.10
2023-05-19T19:45:01.064Z,10.13
2023-05-19T19:47:27.734Z,9.75
2023-05-19T19:49:54.492Z,10.35
2023-05-19T19:52:21.135Z,9.95
2023-05-19T19:54:48.258Z,9.82
2023-05-19T19:57:17.325Z,9.80
2023-05-19T19:59:44.020Z,9.93
2023-05-19T20:02:10.796Z,9.63
2023-05-19T20:04:37.897Z,12.45
2023-05-19T20:07:04.972Z,11.70
2023-05-19T20:09:31.584Z,12.00
2023-05-19T20:11:58.272Z,12.02
2023-05-19T20:14:24.966Z,12.18
2023-05-19T20:16:51.647Z,11.57
2023-05-19T20:19:18.537Z,10.65
2023-05-19T20:21:45.209Z,8.80
2023-05-19T20:24:11.913Z,8.98
2023-05-19T20:26:38.716Z,9.05
2023-05-19T20:29:05.379Z,9.80
2023-05-19T20:31:32.057Z,10.60
2023-05-19T20:33:59.472Z,10.02
2023-05-19T20:36:28.082Z,9.90
2023-05-19T20:38:54.850Z,10.18
2023-05-19T20:41:23.647Z,10.35
2023-05-19T20:43:50.414Z,10.60
2023-05-19T20:46:17.356Z,10.23
2023-05-19T20:48:44.063Z,10.40
2023-05-19T20:51:13.053Z,10.63
2023-05-19T20:53:39.798Z,10.77
2023-05-19T20:56:07.420Z,9.68
2023-05-19T20:58:34.142Z,10.95
2023-05-19T21:01:00.927Z,9.77
2023-05-19T21:03:28.592Z,9.25
2023-05-19T21:05:55.633Z,9.98
2023-05-19T21:08:23.088Z,10.13
2023-05-19T21:10:49.934Z,10.55
2023-05-19T21:13:17.874Z,10.93
2023-05-19T21:15:44.729Z,11.32
2023-05-19T21:18:12.245Z,10.35
2023-05-19T21:20:39.568Z,10.35
2023-05-19T21:23:06.306Z,11.02
2023-05-19T21:25:33.097Z,10.80
2023-05-19T21:27:59.928Z,10.25
2023-05-19T21:30:26.640Z,10.23
2023-05-19T21:32:53.406Z,10.82
2023-05-19T21:35:20.141Z,11.43
2023-05-19T21:37:46.830Z,11.15
2023-05-19T21:40:13.603Z,10.55
2023-05-19T21:42:40.345Z,10.90
2023-05-19T21:45:07.599Z,10.68
2023-05-19T21:47:34.308Z,10.48
2023-05-19T21:50:00.960Z,11.35
2023-05-19T21:52:27.621Z,11.35
2023-05-19T21:54:54.343Z,10.75
2023-05-19T21:57:21.079Z,10.82
2023-05-19T21:59:48.964Z,11.75
2023-05-19T22:02:17.061Z,11.53
2023-05-19T22:04:44.794Z,10.38
2023-05-19T22:07:11.430Z,9.80
2023-05-19T22:09:38.193Z,10.02
2023-05-19T22:12:05.211Z,10.35
2023-05-19T22:14:31.809Z,9.77
2023-05-19T22:16:58.487Z,11.75
2023-05-19T22:19:25.302Z,11.43
2023-05-19T22:22:01.595Z,11.68
2023-05-19T22:24:32.849Z,10.57
2023-05-19T22:26:59.496Z,10.70
2023-05-19T22:29:27.144Z,12.32
2023-05-19T22:31:53.783Z,10.80
2023-05-19T22:34:20.636Z,10.85
2023-05-19T22:36:47.310Z,11.82
2023-05-19T22:39:14.000Z,12.52
2023-05-19T22:41:40.942Z,13.20
2023-05-19T22:44:15.023Z,12.27
2023-05-19T22:46:44.257Z,11.68
2023-05-19T22:49:11.072Z,12.38
2023-05-19T22:51:39.300Z,11.13
2023-05-19T22:54:06.951Z,11.90
2023-05-19T22:56:34.090Z,12.02
2023-05-19T22:59:00.726Z,11.75
2023-05-19T23:01:27.540Z,12.38
2023-05-19T23:03:54.295Z,11.32
2023-05-19T23:06:22.073Z,11.15
2023-05-19T23:08:58.555Z,9.98
2023-05-19T23:11:25.825Z,10.85
2023-05-19T23:13:52.560Z,11.70
2023-05-19T23:16:19.370Z,10.70
2023-05-19T23:18:46.207Z,10.65
2023-05-19T23:21:13.308Z,10.77
2023-05-19T23:23:40.091Z,11.35
2023-05-19T23:26:06.800Z,11.90
2023-05-19T23:28:34.699Z,12.75
2023-05-19T23:31:01.688Z,14.20
2023-05-19T23:33:28.385Z,13.75
2023-05-19T23:35:55.023Z,13.73
2023-05-19T23:38:21.717Z,13.55
2023-05-19T23:40:48.422Z,12.93
2023-05-19T23:43:15.126Z,13.52
2023-05-19T23:45:41.837Z,12.50
2023-05-19T23:48:08.545Z,12.68
2023-05-19T23:50:35.292Z,12.63
2023-05-19T23:53:02.021Z,13.45
2023-05-19T23:55:28.752Z,12.48
2023-05-19T23:57:55.407Z,11.23
